PWSweather.com
Personal Weather Stations
Station Observations
WISCHPK61
Green Bay Schmitt Park, Green Bay, WI 54311

Green Bay Schmitt ParkGreen Bay, WI 54311

Lat: 44.514277, Lon: -87.935067

Elevation: 735

Station Type: Acu Rite Pro Weather Center model 02032C

http://greenbayweathercam.com

High Low Average
Temperature 88.0°F31.1°C 66.7°F19.3°C 77.0°F25.0°C
Dew Point 87.7°F30.9°C 66.4°F19.1°C 76.7°F24.8°C
Winds 3.5 mph 5.6 kmh Calm Calm 1.0 mph SSE1.6 kmh SSE
Wind Gusts 4.6 mph7.4 kmh -- 1.0 mph1.6 kmh
Humidity 99% 99% 99%
Pressure 29.29 in991.9 mb 29.21 in989.2 mb -
Precipitation 0.10 in2.5 mm - -
Hour Temp Dew Point Humidity Winds Wind Gusts Pressure Precip Precip Rate Daily Precip Total
12:00 AM 66.9°F19.4°C 66.6°F19.2°C 99% 1.2 mph SSE1.9 kmh SSE 1.2 mph1.9 kmh 29.29 in991.9 mb - 0.00 in0.0 mm 0.00 in0.0 mm
01:00 AM 66.9°F19.4°C 66.6°F19.2°C 99% Calm Calm -- 29.29 in991.9 mb - 0.00 in0.0 mm 0.00 in0.0 mm
02:00 AM 66.7°F19.3°C 66.4°F19.1°C 99% Calm Calm -- 29.27 in991.2 mb - 0.00 in0.0 mm 0.00 in0.0 mm
03:00 AM 66.7°F19.3°C 66.4°F19.1°C 99% Calm Calm -- 29.27 in991.2 mb - 0.00 in0.0 mm 0.00 in0.0 mm
04:00 AM 66.7°F19.3°C 66.4°F19.1°C 99% Calm Calm -- 29.29 in991.9 mb - 0.00 in0.0 mm 0.00 in0.0 mm
05:00 AM 66.7°F19.3°C 66.4°F19.1°C 99% Calm Calm -- 29.29 in991.9 mb - 0.00 in0.0 mm 0.00 in0.0 mm
06:00 AM 67.5°F19.7°C 67.2°F19.6°C 99% Calm Calm -- 29.27 in991.2 mb - 0.00 in0.0 mm 0.00 in0.0 mm
07:00 AM 68.0°F20.0°C 67.7°F19.8°C 99% 1.2 mph S1.9 kmh S 1.2 mph1.9 kmh 29.27 in991.2 mb - 0.00 in0.0 mm 0.00 in0.0 mm
08:00 AM 70.9°F21.6°C 70.6°F21.4°C 99% Calm Calm -- 29.27 in991.2 mb - 0.00 in0.0 mm 0.00 in0.0 mm
09:00 AM 73.9°F23.3°C 73.6°F23.1°C 99% 2.3 mph SSE3.7 kmh SSE 4.6 mph7.4 kmh 29.29 in991.9 mb - 0.00 in0.0 mm 0.00 in0.0 mm
10:00 AM 79.0°F26.1°C 78.7°F25.9°C 99% 3.5 mph SSE5.6 kmh SSE 3.5 mph5.6 kmh 29.28 in991.5 mb - 0.00 in0.0 mm 0.00 in0.0 mm
11:00 AM 81.7°F27.6°C 81.4°F27.4°C 99% Calm Calm -- 29.27 in991.2 mb - 0.00 in0.0 mm 0.00 in0.0 mm
12:00 PM 84.6°F29.2°C 84.2°F29.0°C 99% 1.2 mph W1.9 kmh W -- 29.27 in991.2 mb - 0.00 in0.0 mm 0.00 in0.0 mm
01:00 PM 86.2°F30.1°C 85.9°F29.9°C 99% Calm Calm -- 29.26 in990.9 mb - 0.00 in0.0 mm 0.00 in0.0 mm
02:00 PM 88.0°F31.1°C 87.7°F30.9°C 99% 1.2 mph SE1.9 kmh SE 2.3 mph3.7 kmh 29.26 in990.9 mb - 0.00 in0.0 mm 0.00 in0.0 mm
03:00 PM 87.0°F30.6°C 86.7°F30.4°C 99% Calm Calm 1.2 mph1.9 kmh 29.25 in990.5 mb - 0.00 in0.0 mm 0.00 in0.0 mm
04:00 PM 87.3°F30.7°C 87.0°F30.6°C 99% 1.2 mph SW1.9 kmh SW 1.2 mph1.9 kmh 29.24 in990.2 mb - 0.00 in0.0 mm 0.00 in0.0 mm
05:00 PM 87.3°F30.7°C 87.0°F30.6°C 99% Calm Calm 1.2 mph1.9 kmh 29.22 in989.5 mb - 0.00 in0.0 mm 0.00 in0.0 mm
06:00 PM 86.5°F30.3°C 86.2°F30.1°C 99% Calm Calm -- 29.21 in989.2 mb - 0.00 in0.0 mm 0.00 in0.0 mm
07:00 PM 84.4°F29.1°C 84.1°F28.9°C 99% Calm Calm -- 29.21 in989.2 mb - 0.00 in0.0 mm 0.00 in0.0 mm
08:00 PM 82.6°F28.1°C 82.3°F27.9°C 99% Calm Calm -- 29.22 in989.5 mb - 0.00 in0.0 mm 0.00 in0.0 mm
09:00 PM 81.1°F27.3°C 80.8°F27.1°C 99% 2.3 mph SSE3.7 kmh SSE 2.3 mph3.7 kmh 29.22 in989.5 mb - 0.00 in0.0 mm 0.00 in0.0 mm
10:00 PM 80.1°F26.7°C 79.8°F26.6°C 99% Calm Calm -- 29.22 in989.5 mb - 0.00 in0.0 mm 0.00 in0.0 mm
11:00 PM 69.8°F21.0°C 69.5°F20.8°C 99% 1.2 mph E1.9 kmh E 1.2 mph1.9 kmh 29.29 in991.9 mb - 0.10 in2.5 mm 0.10 in2.5 mm